sensor_id;sensor_type;location;lat;lon;timestamp;temperature;humidity
20590;DHT22;10453;50.810;12.540;2023-04-15T00:00:38;6.40;99.90
20590;DHT22;10453;50.810;12.540;2023-04-15T00:04:56;6.40;99.90
20590;DHT22;10453;50.810;12.540;2023-04-15T00:09:13;6.40;99.90
20590;DHT22;10453;50.810;12.540;2023-04-15T00:13:31;6.30;99.90
20590;DHT22;10453;50.810;12.540;2023-04-15T00:17:50;6.30;99.90
20590;DHT22;10453;50.810;12.540;2023-04-15T00:22:08;6.30;99.90
20590;DHT22;10453;50.810;12.540;2023-04-15T00:26:25;6.30;99.90
20590;DHT22;10453;50.810;12.540;2023-04-15T00:30:43;6.40;99.90
20590;DHT22;10453;50.810;12.540;2023-04-15T00:35:00;6.40;99.90
20590;DHT22;10453;50.810;12.540;2023-04-15T00:39:18;6.30;99.90
20590;DHT22;10453;50.810;12.540;2023-04-15T00:43:35;6.30;99.90
20590;DHT22;10453;50.810;12.540;2023-04-15T00:47:52;6.30;99.90
20590;DHT22;10453;50.810;12.540;2023-04-15T00:52:09;6.30;99.90
20590;DHT22;10453;50.810;12.540;2023-04-15T00:56:28;6.30;99.90
20590;DHT22;10453;50.810;12.540;2023-04-15T01:00:45;6.30;99.90
20590;DHT22;10453;50.810;12.540;2023-04-15T01:05:03;6.30;99.90
20590;DHT22;10453;50.810;12.540;2023-04-15T01:09:20;6.20;99.90
20590;DHT22;10453;50.810;12.540;2023-04-15T01:13:39;6.30;99.90
20590;DHT22;10453;50.810;12.540;2023-04-15T01:17:58;6.30;99.90
20590;DHT22;10453;50.810;12.540;2023-04-15T01:22:15;6.30;99.90
20590;DHT22;10453;50.810;12.540;2023-04-15T01:26:33;6.30;99.90
20590;DHT22;10453;50.810;12.540;2023-04-15T01:31:04;6.30;99.90
20590;DHT22;10453;50.810;12.540;2023-04-15T01:35:23;6.40;99.90
20590;DHT22;10453;50.810;12.540;2023-04-15T01:39:40;6.40;99.90
20590;DHT22;10453;50.810;12.540;2023-04-15T01:43:58;6.30;99.90
20590;DHT22;10453;50.810;12.540;2023-04-15T01:48:15;6.30;99.90
20590;DHT22;10453;50.810;12.540;2023-04-15T01:52:32;6.30;99.90
20590;DHT22;10453;50.810;12.540;2023-04-15T01:56:49;6.30;99.90
20590;DHT22;10453;50.810;12.540;2023-04-15T02:01:07;6.20;99.90
20590;DHT22;10453;50.810;12.540;2023-04-15T02:05:26;6.20;99.90
20590;DHT22;10453;50.810;12.540;2023-04-15T02:09:43;6.10;99.90
20590;DHT22;10453;50.810;12.540;2023-04-15T02:14:02;6.20;99.90
20590;DHT22;10453;50.810;12.540;2023-04-15T02:18:22;6.10;99.90
20590;DHT22;10453;50.810;12.540;2023-04-15T02:22:39;6.10;99.90
20590;DHT22;10453;50.810;12.540;2023-04-15T02:26:57;6.10;99.90
20590;DHT22;10453;50.810;12.540;2023-04-15T02:31:14;6.20;99.90
20590;DHT22;10453;50.810;12.540;2023-04-15T02:35:31;6.20;99.90
20590;DHT22;10453;50.810;12.540;2023-04-15T02:39:48;6.20;99.90
20590;DHT22;10453;50.810;12.540;2023-04-15T02:44:06;6.20;99.90
20590;DHT22;10453;50.810;12.540;2023-04-15T02:48:27;6.20;99.90
20590;DHT22;10453;50.810;12.540;2023-04-15T02:52:44;6.20;99.90
20590;DHT22;10453;50.810;12.540;2023-04-15T02:57:02;6.20;99.90
20590;DHT22;10453;50.810;12.540;2023-04-15T03:01:19;6.30;99.90
20590;DHT22;10453;50.810;12.540;2023-04-15T03:05:37;6.20;99.90
20590;DHT22;10453;50.810;12.540;2023-04-15T03:09:55;6.20;99.90
20590;DHT22;10453;50.810;12.540;2023-04-15T03:14:12;6.20;99.90
20590;DHT22;10453;50.810;12.540;2023-04-15T03:18:29;6.10;99.90
20590;DHT22;10453;50.810;12.540;2023-04-15T03:22:47;6.20;99.90
20590;DHT22;10453;50.810;12.540;2023-04-15T03:27:04;6.20;99.90
20590;DHT22;10453;50.810;12.540;2023-04-15T03:31:23;6.10;99.90
20590;DHT22;10453;50.810;12.540;2023-04-15T03:35:41;6.20;99.90
20590;DHT22;10453;50.810;12.540;2023-04-15T03:39:58;6.20;99.90
20590;DHT22;10453;50.810;12.540;2023-04-15T03:44:15;6.20;99.90
20590;DHT22;10453;50.810;12.540;2023-04-15T03:48:33;6.20;99.90
20590;DHT22;10453;50.810;12.540;2023-04-15T03:52:50;6.30;99.90
20590;DHT22;10453;50.810;12.540;2023-04-15T03:57:07;6.30;99.90
20590;DHT22;10453;50.810;12.540;2023-04-15T04:01:24;6.30;99.90
20590;DHT22;10453;50.810;12.540;2023-04-15T04:05:41;6.30;99.90
20590;DHT22;10453;50.810;12.540;2023-04-15T04:10:00;6.30;99.90
20590;DHT22;10453;50.810;12.540;2023-04-15T04:14:17;6.20;99.90
20590;DHT22;10453;50.810;12.540;2023-04-15T04:18:34;6.20;99.90
20590;DHT22;10453;50.810;12.540;2023-04-15T04:22:51;6.20;99.90
20590;DHT22;10453;50.810;12.540;2023-04-15T04:27:08;6.20;99.90
20590;DHT22;10453;50.810;12.540;2023-04-15T04:31:26;6.20;99.90
20590;DHT22;10453;50.810;12.540;2023-04-15T04:35:43;6.20;99.90
20590;DHT22;10453;50.810;12.540;2023-04-15T04:40:00;6.20;99.90
20590;DHT22;10453;50.810;12.540;2023-04-15T04:44:17;6.20;99.90
20590;DHT22;10453;50.810;12.540;2023-04-15T04:48:34;6.10;99.90
20590;DHT22;10453;50.810;12.540;2023-04-15T04:52:52;6.10;99.90
20590;DHT22;10453;50.810;12.540;2023-04-15T04:57:09;6.20;99.90
20590;DHT22;10453;50.810;12.540;2023-04-15T05:01:26;6.20;99.90
20590;DHT22;10453;50.810;12.540;2023-04-15T05:05:44;6.20;99.90
20590;DHT22;10453;50.810;12.540;2023-04-15T05:10:01;6.30;99.90
20590;DHT22;10453;50.810;12.540;2023-04-15T05:14:19;6.20;99.90
20590;DHT22;10453;50.810;12.540;2023-04-15T05:18:39;6.20;99.90
20590;DHT22;10453;50.810;12.540;2023-04-15T05:22:56;6.20;99.90
20590;DHT22;10453;50.810;12.540;2023-04-15T05:27:13;6.30;99.90
20590;DHT22;10453;50.810;12.540;2023-04-15T05:31:31;6.30;99.90
20590;DHT22;10453;50.810;12.540;2023-04-15T05:35:48;6.30;99.90
20590;DHT22;10453;50.810;12.540;2023-04-15T05:40:05;6.40;99.90
20590;DHT22;10453;50.810;12.540;2023-04-15T05:44:23;6.30;99.90
20590;DHT22;10453;50.810;12.540;2023-04-15T05:48:40;6.20;99.90
20590;DHT22;10453;50.810;12.540;2023-04-15T05:52:57;6.30;99.90
20590;DHT22;10453;50.810;12.540;2023-04-15T05:57:14;6.30;99.90
20590;DHT22;10453;50.810;12.540;2023-04-15T06:01:34;6.30;99.90
20590;DHT22;10453;50.810;12.540;2023-04-15T06:05:52;6.30;99.90
20590;DHT22;10453;50.810;12.540;2023-04-15T06:10:09;6.30;99.90
20590;DHT22;10453;50.810;12.540;2023-04-15T06:14:27;6.40;99.90
20590;DHT22;10453;50.810;12.540;2023-04-15T06:18:44;6.30;99.90
20590;DHT22;10453;50.810;12.540;2023-04-15T06:23:01;6.30;99.90
20590;DHT22;10453;50.810;12.540;2023-04-15T06:27:18;6.40;99.90
20590;DHT22;10453;50.810;12.540;2023-04-15T06:31:36;6.50;99.90
20590;DHT22;10453;50.810;12.540;2023-04-15T06:35:53;6.60;99.90
20590;DHT22;10453;50.810;12.540;2023-04-15T06:40:11;6.70;99.90
20590;DHT22;10453;50.810;12.540;2023-04-15T06:44:29;6.80;99.90
20590;DHT22;10453;50.810;12.540;2023-04-15T06:48:49;6.80;99.90
20590;DHT22;10453;50.810;12.540;2023-04-15T06:53:07;6.70;99.90
20590;DHT22;10453;50.810;12.540;2023-04-15T06:57:25;6.70;99.90
20590;DHT22;10453;50.810;12.540;2023-04-15T07:01:42;6.80;99.90
20590;DHT22;10453;50.810;12.540;2023-04-15T07:06:00;6.90;99.90
20590;DHT22;10453;50.810;12.540;2023-04-15T07:10:17;6.90;99.90
20590;DHT22;10453;50.810;12.540;2023-04-15T07:14:35;6.90;99.90
20590;DHT22;10453;50.810;12.540;2023-04-15T07:18:52;6.90;99.90
20590;DHT22;10453;50.810;12.540;2023-04-15T07:23:09;7.00;99.90
20590;DHT22;10453;50.810;12.540;2023-04-15T07:27:27;7.10;99.90
20590;DHT22;10453;50.810;12.540;2023-04-15T07:31:44;7.00;99.90
20590;DHT22;10453;50.810;12.540;2023-04-15T07:36:01;7.10;99.90
20590;DHT22;10453;50.810;12.540;2023-04-15T07:40:18;7.00;99.90
20590;DHT22;10453;50.810;12.540;2023-04-15T07:44:36;7.20;99.90
20590;DHT22;10453;50.810;12.540;2023-04-15T07:48:53;7.20;99.90
20590;DHT22;10453;50.810;12.540;2023-04-15T07:53:10;7.30;99.90
20590;DHT22;10453;50.810;12.540;2023-04-15T07:57:28;7.20;99.90
20590;DHT22;10453;50.810;12.540;2023-04-15T08:01:45;7.10;99.90
20590;DHT22;10453;50.810;12.540;2023-04-15T08:06:03;7.10;99.90
20590;DHT22;10453;50.810;12.540;2023-04-15T08:10:20;7.20;99.90
20590;DHT22;10453;50.810;12.540;2023-04-15T08:14:38;7.30;99.90
20590;DHT22;10453;50.810;12.540;2023-04-15T08:18:55;7.40;99.90
20590;DHT22;10453;50.810;12.540;2023-04-15T08:23:13;7.50;99.90
20590;DHT22;10453;50.810;12.540;2023-04-15T08:27:30;7.60;99.90
20590;DHT22;10453;50.810;12.540;2023-04-15T08:31:48;7.60;99.90
20590;DHT22;10453;50.810;12.540;2023-04-15T08:36:05;7.60;99.90
20590;DHT22;10453;50.810;12.540;2023-04-15T08:40:30;7.70;99.90
20590;DHT22;10453;50.810;12.540;2023-04-15T08:44:52;7.70;99.90
20590;DHT22;10453;50.810;12.540;2023-04-15T08:49:10;7.90;99.90
20590;DHT22;10453;50.810;12.540;2023-04-15T08:53:30;7.90;99.90
20590;DHT22;10453;50.810;12.540;2023-04-15T08:57:48;7.80;99.90
20590;DHT22;10453;50.810;12.540;2023-04-15T09:02:06;7.80;99.90
20590;DHT22;10453;50.810;12.540;2023-04-15T09:06:24;7.90;99.90
20590;DHT22;10453;50.810;12.540;2023-04-15T09:10:42;7.80;99.90
20590;DHT22;10453;50.810;12.540;2023-04-15T09:14:59;7.80;99.90
20590;DHT22;10453;50.810;12.540;2023-04-15T09:19:21;7.90;99.90
20590;DHT22;10453;50.810;12.540;2023-04-15T09:23:52;7.90;99.90
20590;DHT22;10453;50.810;12.540;2023-04-15T09:28:10;7.90;99.90
20590;DHT22;10453;50.810;12.540;2023-04-15T09:32:27;8.00;99.90
20590;DHT22;10453;50.810;12.540;2023-04-15T09:41:02;8.00;99.90
20590;DHT22;10453;50.810;12.540;2023-04-15T09:45:20;8.10;99.90
20590;DHT22;10453;50.810;12.540;2023-04-15T09:49:54;8.10;99.90
20590;DHT22;10453;50.810;12.540;2023-04-15T09:54:18;8.10;99.90
20590;DHT22;10453;50.810;12.540;2023-04-15T09:58:37;8.30;99.90
20590;DHT22;10453;50.810;12.540;2023-04-15T10:02:54;8.40;99.90
20590;DHT22;10453;50.810;12.540;2023-04-15T10:07:12;8.70;99.90
20590;DHT22;10453;50.810;12.540;2023-04-15T10:11:32;8.70;99.90
20590;DHT22;10453;50.810;12.540;2023-04-15T10:15:56;8.70;99.90
20590;DHT22;10453;50.810;12.540;2023-04-15T10:20:14;8.70;99.90
20590;DHT22;10453;50.810;12.540;2023-04-15T10:24:33;8.60;99.90
20590;DHT22;10453;50.810;12.540;2023-04-15T10:28:50;8.50;99.90
20590;DHT22;10453;50.810;12.540;2023-04-15T10:33:09;8.50;99.90
20590;DHT22;10453;50.810;12.540;2023-04-15T10:37:36;8.60;99.90
20590;DHT22;10453;50.810;12.540;2023-04-15T10:42:10;8.60;99.90
20590;DHT22;10453;50.810;12.540;2023-04-15T10:46:39;8.70;99.90
20590;DHT22;10453;50.810;12.540;2023-04-15T10:50:56;9.00;99.90
20590;DHT22;10453;50.810;12.540;2023-04-15T10:55:21;8.80;99.90
20590;DHT22;10453;50.810;12.540;2023-04-15T10:59:59;8.80;99.90
20590;DHT22;10453;50.810;12.540;2023-04-15T11:09:30;9.10;99.90
20590;DHT22;10453;50.810;12.540;2023-04-15T11:13:50;9.00;99.90
20590;DHT22;10453;50.810;12.540;2023-04-15T11:18:09;9.10;99.90
20590;DHT22;10453;50.810;12.540;2023-04-15T11:22:26;9.20;99.90
20590;DHT22;10453;50.810;12.540;2023-04-15T11:26:43;9.30;99.90
20590;DHT22;10453;50.810;12.540;2023-04-15T11:31:09;9.40;99.90
20590;DHT22;10453;50.810;12.540;2023-04-15T11:35:27;9.20;99.90
20590;DHT22;10453;50.810;12.540;2023-04-15T11:39:48;9.10;99.90
20590;DHT22;10453;50.810;12.540;2023-04-15T11:44:18;8.90;99.90
20590;DHT22;10453;50.810;12.540;2023-04-15T11:48:35;9.00;99.90
20590;DHT22;10453;50.810;12.540;2023-04-15T11:52:54;9.10;99.90
20590;DHT22;10453;50.810;12.540;2023-04-15T11:57:11;9.00;99.90
20590;DHT22;10453;50.810;12.540;2023-04-15T12:01:37;9.10;99.90
20590;DHT22;10453;50.810;12.540;2023-04-15T12:06:06;9.10;99.90
20590;DHT22;10453;50.810;12.540;2023-04-15T12:10:24;9.10;99.90
20590;DHT22;10453;50.810;12.540;2023-04-15T12:14:42;8.90;99.90
20590;DHT22;10453;50.810;12.540;2023-04-15T12:19:01;9.00;99.90
20590;DHT22;10453;50.810;12.540;2023-04-15T12:23:20;9.10;99.90
20590;DHT22;10453;50.810;12.540;2023-04-15T12:27:37;8.90;99.90
20590;DHT22;10453;50.810;12.540;2023-04-15T12:32:05;9.00;99.90
20590;DHT22;10453;50.810;12.540;2023-04-15T12:36:24;9.10;99.90
20590;DHT22;10453;50.810;12.540;2023-04-15T12:40:41;9.20;99.90
20590;DHT22;10453;50.810;12.540;2023-04-15T12:44:58;9.20;99.90
20590;DHT22;10453;50.810;12.540;2023-04-15T12:49:15;9.10;99.90
20590;DHT22;10453;50.810;12.540;2023-04-15T12:53:36;9.20;99.90
20590;DHT22;10453;50.810;12.540;2023-04-15T12:57:53;9.30;99.90
20590;DHT22;10453;50.810;12.540;2023-04-15T13:02:10;9.20;99.90
20590;DHT22;10453;50.810;12.540;2023-04-15T13:06:28;9.20;99.90
20590;DHT22;10453;50.810;12.540;2023-04-15T13:10:45;9.20;99.90
20590;DHT22;10453;50.810;12.540;2023-04-15T13:15:03;9.20;99.90
20590;DHT22;10453;50.810;12.540;2023-04-15T13:19:21;9.30;99.90
20590;DHT22;10453;50.810;12.540;2023-04-15T13:23:40;9.10;99.90
20590;DHT22;10453;50.810;12.540;2023-04-15T13:27:58;9.20;99.90
20590;DHT22;10453;50.810;12.540;2023-04-15T13:32:15;9.40;99.90
20590;DHT22;10453;50.810;12.540;2023-04-15T13:36:32;9.40;99.90
20590;DHT22;10453;50.810;12.540;2023-04-15T13:40:49;9.30;99.90
20590;DHT22;10453;50.810;12.540;2023-04-15T13:45:07;9.40;99.90
20590;DHT22;10453;50.810;12.540;2023-04-15T13:49:24;9.40;99.90
20590;DHT22;10453;50.810;12.540;2023-04-15T13:53:42;9.40;99.90
20590;DHT22;10453;50.810;12.540;2023-04-15T13:57:59;9.30;99.90
20590;DHT22;10453;50.810;12.540;2023-04-15T14:02:16;9.20;99.90
20590;DHT22;10453;50.810;12.540;2023-04-15T14:06:33;9.30;99.90
20590;DHT22;10453;50.810;12.540;2023-04-15T14:10:50;9.50;99.90
20590;DHT22;10453;50.810;12.540;2023-04-15T14:15:08;9.30;99.90
20590;DHT22;10453;50.810;12.540;2023-04-15T14:19:25;9.30;99.90
20590;DHT22;10453;50.810;12.540;2023-04-15T14:23:42;9.20;99.90
20590;DHT22;10453;50.810;12.540;2023-04-15T14:28:01;9.20;99.90
20590;DHT22;10453;50.810;12.540;2023-04-15T14:32:18;9.10;99.90
20590;DHT22;10453;50.810;12.540;2023-04-15T14:36:35;9.20;99.90
20590;DHT22;10453;50.810;12.540;2023-04-15T14:40:53;9.20;99.90
20590;DHT22;10453;50.810;12.540;2023-04-15T14:45:10;9.20;99.90
20590;DHT22;10453;50.810;12.540;2023-04-15T14:49:28;9.10;99.90
20590;DHT22;10453;50.810;12.540;2023-04-15T14:53:46;9.20;99.90
20590;DHT22;10453;50.810;12.540;2023-04-15T14:58:03;9.20;99.90
20590;DHT22;10453;50.810;12.540;2023-04-15T15:02:20;9.20;99.90
20590;DHT22;10453;50.810;12.540;2023-04-15T15:06:42;9.30;99.90
20590;DHT22;10453;50.810;12.540;2023-04-15T15:10:59;9.40;99.90
20590;DHT22;10453;50.810;12.540;2023-04-15T15:15:16;9.30;99.90
20590;DHT22;10453;50.810;12.540;2023-04-15T15:19:44;9.30;99.90
20590;DHT22;10453;50.810;12.540;2023-04-15T15:24:02;9.40;99.90
20590;DHT22;10453;50.810;12.540;2023-04-15T15:28:19;9.50;99.90
20590;DHT22;10453;50.810;12.540;2023-04-15T15:32:39;9.40;99.90
20590;DHT22;10453;50.810;12.540;2023-04-15T15:36:56;9.50;99.90
20590;DHT22;10453;50.810;12.540;2023-04-15T15:41:14;9.40;99.90
20590;DHT22;10453;50.810;12.540;2023-04-15T15:45:31;9.30;99.90
20590;DHT22;10453;50.810;12.540;2023-04-15T15:49:49;9.30;99.90
20590;DHT22;10453;50.810;12.540;2023-04-15T15:54:06;9.20;99.90
20590;DHT22;10453;50.810;12.540;2023-04-15T15:58:23;9.20;99.90
20590;DHT22;10453;50.810;12.540;2023-04-15T16:02:41;9.20;99.90
20590;DHT22;10453;50.810;12.540;2023-04-15T16:07:01;9.20;99.90
20590;DHT22;10453;50.810;12.540;2023-04-15T16:11:19;9.20;99.90
20590;DHT22;10453;50.810;12.540;2023-04-15T16:15:36;9.20;99.90
20590;DHT22;10453;50.810;12.540;2023-04-15T16:19:53;9.20;99.90
20590;DHT22;10453;50.810;12.540;2023-04-15T16:24:17;9.10;99.90
20590;DHT22;10453;50.810;12.540;2023-04-15T16:28:35;9.20;99.90
20590;DHT22;10453;50.810;12.540;2023-04-15T16:32:52;9.30;99.90
20590;DHT22;10453;50.810;12.540;2023-04-15T16:37:10;9.60;99.90
20590;DHT22;10453;50.810;12.540;2023-04-15T16:41:27;9.70;99.90
20590;DHT22;10453;50.810;12.540;2023-04-15T16:45:46;9.50;99.90
20590;DHT22;10453;50.810;12.540;2023-04-15T16:50:07;9.50;99.90
20590;DHT22;10453;50.810;12.540;2023-04-15T16:54:24;9.80;99.90
20590;DHT22;10453;50.810;12.540;2023-04-15T16:58:42;9.90;99.90
20590;DHT22;10453;50.810;12.540;2023-04-15T17:02:59;9.70;99.90
20590;DHT22;10453;50.810;12.540;2023-04-15T17:07:17;9.50;99.90
20590;DHT22;10453;50.810;12.540;2023-04-15T17:11:34;9.40;99.90
20590;DHT22;10453;50.810;12.540;2023-04-15T17:15:53;9.50;99.90
20590;DHT22;10453;50.810;12.540;2023-04-15T17:20:17;9.60;99.90
20590;DHT22;10453;50.810;12.540;2023-04-15T17:24:34;9.60;99.90
20590;DHT22;10453;50.810;12.540;2023-04-15T17:28:54;9.60;99.90
20590;DHT22;10453;50.810;12.540;2023-04-15T17:33:11;9.70;99.90
20590;DHT22;10453;50.810;12.540;2023-04-15T17:37:49;9.60;99.90
20590;DHT22;10453;50.810;12.540;2023-04-15T17:42:06;9.50;99.90
20590;DHT22;10453;50.810;12.540;2023-04-15T17:46:25;9.40;99.90
20590;DHT22;10453;50.810;12.540;2023-04-15T17:50:43;9.30;99.90
20590;DHT22;10453;50.810;12.540;2023-04-15T17:55:01;9.40;99.90
20590;DHT22;10453;50.810;12.540;2023-04-15T17:59:18;9.40;99.90
20590;DHT22;10453;50.810;12.540;2023-04-15T18:03:35;9.30;99.90
20590;DHT22;10453;50.810;12.540;2023-04-15T18:07:54;9.20;99.90
20590;DHT22;10453;50.810;12.540;2023-04-15T18:12:11;9.10;99.90
20590;DHT22;10453;50.810;12.540;2023-04-15T18:16:28;9.10;99.90
20590;DHT22;10453;50.810;12.540;2023-04-15T18:20:46;9.00;99.90
20590;DHT22;10453;50.810;12.540;2023-04-15T18:25:04;8.90;99.90
20590;DHT22;10453;50.810;12.540;2023-04-15T18:29:21;8.90;99.90
20590;DHT22;10453;50.810;12.540;2023-04-15T18:33:39;8.70;99.90
20590;DHT22;10453;50.810;12.540;2023-04-15T18:37:56;8.70;99.90
20590;DHT22;10453;50.810;12.540;2023-04-15T18:42:16;8.70;99.90
20590;DHT22;10453;50.810;12.540;2023-04-15T18:46:34;8.70;99.90
20590;DHT22;10453;50.810;12.540;2023-04-15T18:50:51;8.60;99.90
20590;DHT22;10453;50.810;12.540;2023-04-15T18:55:10;8.50;99.90
20590;DHT22;10453;50.810;12.540;2023-04-15T18:59:27;8.40;99.90
20590;DHT22;10453;50.810;12.540;2023-04-15T19:03:46;8.30;99.90
20590;DHT22;10453;50.810;12.540;2023-04-15T19:08:04;8.30;99.90
20590;DHT22;10453;50.810;12.540;2023-04-15T19:12:21;8.30;99.90
20590;DHT22;10453;50.810;12.540;2023-04-15T19:16:38;8.20;99.90
20590;DHT22;10453;50.810;12.540;2023-04-15T19:20:56;8.20;99.90
20590;DHT22;10453;50.810;12.540;2023-04-15T19:25:13;8.20;99.90
20590;DHT22;10453;50.810;12.540;2023-04-15T19:29:30;8.20;99.90
20590;DHT22;10453;50.810;12.540;2023-04-15T19:33:47;8.20;99.90
20590;DHT22;10453;50.810;12.540;2023-04-15T19:38:05;8.30;99.90
20590;DHT22;10453;50.810;12.540;2023-04-15T19:42:22;8.40;99.90
20590;DHT22;10453;50.810;12.540;2023-04-15T19:46:40;8.30;99.90
20590;DHT22;10453;50.810;12.540;2023-04-15T19:51:03;8.30;99.90
20590;DHT22;10453;50.810;12.540;2023-04-15T19:55:21;8.20;99.90
20590;DHT22;10453;50.810;12.540;2023-04-15T19:59:38;8.00;99.90
20590;DHT22;10453;50.810;12.540;2023-04-15T20:03:55;8.00;99.90
20590;DHT22;10453;50.810;12.540;2023-04-15T20:08:13;7.80;99.90
20590;DHT22;10453;50.810;12.540;2023-04-15T20:12:30;7.80;99.90
20590;DHT22;10453;50.810;12.540;2023-04-15T20:17:07;7.80;99.90
20590;DHT22;10453;50.810;12.540;2023-04-15T20:21:24;7.90;99.90
20590;DHT22;10453;50.810;12.540;2023-04-15T20:25:42;8.00;99.90
20590;DHT22;10453;50.810;12.540;2023-04-15T20:29:59;8.00;99.90
20590;DHT22;10453;50.810;12.540;2023-04-15T20:34:16;7.90;99.90
20590;DHT22;10453;50.810;12.540;2023-04-15T20:38:33;8.00;99.90
20590;DHT22;10453;50.810;12.540;2023-04-15T20:42:50;8.00;99.90
20590;DHT22;10453;50.810;12.540;2023-04-15T20:47:07;8.00;99.90
20590;DHT22;10453;50.810;12.540;2023-04-15T20:51:25;8.00;99.90
20590;DHT22;10453;50.810;12.540;2023-04-15T20:55:43;8.00;99.90
20590;DHT22;10453;50.810;12.540;2023-04-15T21:00:00;8.00;99.90
20590;DHT22;10453;50.810;12.540;2023-04-15T21:04:17;8.00;99.90
20590;DHT22;10453;50.810;12.540;2023-04-15T21:08:35;7.90;99.90
20590;DHT22;10453;50.810;12.540;2023-04-15T21:12:52;7.90;99.90
20590;DHT22;10453;50.810;12.540;2023-04-15T21:17:09;7.90;99.90
20590;DHT22;10453;50.810;12.540;2023-04-15T21:21:27;7.90;99.90
20590;DHT22;10453;50.810;12.540;2023-04-15T21:25:44;7.90;99.90
20590;DHT22;10453;50.810;12.540;2023-04-15T21:30:02;7.90;99.90
20590;DHT22;10453;50.810;12.540;2023-04-15T21:34:19;8.00;99.90
20590;DHT22;10453;50.810;12.540;2023-04-15T21:38:36;8.00;99.90
20590;DHT22;10453;50.810;12.540;2023-04-15T21:42:54;8.10;99.90
20590;DHT22;10453;50.810;12.540;2023-04-15T21:47:11;8.10;99.90
20590;DHT22;10453;50.810;12.540;2023-04-15T21:51:28;8.10;99.90
20590;DHT22;10453;50.810;12.540;2023-04-15T21:55:45;8.10;99.90
20590;DHT22;10453;50.810;12.540;2023-04-15T22:00:03;8.10;99.90
20590;DHT22;10453;50.810;12.540;2023-04-15T22:04:22;8.10;99.90
20590;DHT22;10453;50.810;12.540;2023-04-15T22:08:39;8.10;99.90
20590;DHT22;10453;50.810;12.540;2023-04-15T22:13:12;8.20;99.90
20590;DHT22;10453;50.810;12.540;2023-04-15T22:17:30;8.20;99.90
20590;DHT22;10453;50.810;12.540;2023-04-15T22:21:48;8.20;99.90
20590;DHT22;10453;50.810;12.540;2023-04-15T22:26:06;8.20;99.90
20590;DHT22;10453;50.810;12.540;2023-04-15T22:30:23;8.10;99.90
20590;DHT22;10453;50.810;12.540;2023-04-15T22:34:40;8.00;99.90
20590;DHT22;10453;50.810;12.540;2023-04-15T22:38:57;7.90;99.90
20590;DHT22;10453;50.810;12.540;2023-04-15T22:43:14;7.80;99.90
20590;DHT22;10453;50.810;12.540;2023-04-15T22:47:31;7.90;99.90
20590;DHT22;10453;50.810;12.540;2023-04-15T22:51:48;8.00;99.90
20590;DHT22;10453;50.810;12.540;2023-04-15T22:56:06;8.00;99.90
20590;DHT22;10453;50.810;12.540;2023-04-15T23:00:23;8.00;99.90
20590;DHT22;10453;50.810;12.540;2023-04-15T23:04:40;8.10;99.90
20590;DHT22;10453;50.810;12.540;2023-04-15T23:08:58;8.10;99.90
20590;DHT22;10453;50.810;12.540;2023-04-15T23:13:15;8.20;99.90
20590;DHT22;10453;50.810;12.540;2023-04-15T23:17:32;7.90;99.90
20590;DHT22;10453;50.810;12.540;2023-04-15T23:21:50;7.80;99.90
20590;DHT22;10453;50.810;12.540;2023-04-15T23:26:08;7.80;99.90
20590;DHT22;10453;50.810;12.540;2023-04-15T23:30:25;7.90;99.90
20590;DHT22;10453;50.810;12.540;2023-04-15T23:34:43;7.80;99.90
20590;DHT22;10453;50.810;12.540;2023-04-15T23:39:00;8.00;99.90
20590;DHT22;10453;50.810;12.540;2023-04-15T23:43:17;7.90;99.90
20590;DHT22;10453;50.810;12.540;2023-04-15T23:47:34;7.90;99.90
20590;DHT22;10453;50.810;12.540;2023-04-15T23:51:51;7.90;99.90
20590;DHT22;10453;50.810;12.540;2023-04-15T23:56:09;7.90;99.90
